sensor_id;sensor_type;location;lat;lon;timestamp;pressure;altitude;pressure_sealevel;temperature;humidity
17785;BME280;9016;53.582;10.062;2023-02-12T00:01:07;103452.53;;;9.58;100.00
17785;BME280;9016;53.582;10.062;2023-02-12T00:03:36;103457.78;;;9.61;100.00
17785;BME280;9016;53.582;10.062;2023-02-12T00:06:05;103461.22;;;9.71;100.00
17785;BME280;9016;53.582;10.062;2023-02-12T00:08:35;103457.66;;;9.70;100.00
17785;BME280;9016;53.582;10.062;2023-02-12T00:11:07;103468.47;;;9.60;100.00
17785;BME280;9016;53.582;10.062;2023-02-12T00:13:35;103469.44;;;9.53;100.00
17785;BME280;9016;53.582;10.062;2023-02-12T00:16:06;103476.63;;;9.45;100.00
17785;BME280;9016;53.582;10.062;2023-02-12T00:18:35;103477.38;;;9.56;100.00
17785;BME280;9016;53.582;10.062;2023-02-12T00:21:04;103480.09;;;9.53;100.00
17785;BME280;9016;53.582;10.062;2023-02-12T00:23:36;103477.44;;;9.53;100.00
17785;BME280;9016;53.582;10.062;2023-02-12T00:26:07;103474.72;;;9.59;100.00
17785;BME280;9016;53.582;10.062;2023-02-12T00:28:35;103475.78;;;9.44;100.00
17785;BME280;9016;53.582;10.062;2023-02-12T00:31:05;103479.34;;;9.42;100.00
17785;BME280;9016;53.582;10.062;2023-02-12T00:33:33;103481.13;;;9.40;100.00
17785;BME280;9016;53.582;10.062;2023-02-12T00:36:02;103484.72;;;9.36;100.00
17785;BME280;9016;53.582;10.062;2023-02-12T00:38:30;103489.13;;;9.40;100.00
17785;BME280;9016;53.582;10.062;2023-02-12T00:41:00;103497.16;;;9.35;100.00
17785;BME280;9016;53.582;10.062;2023-02-12T00:43:28;103493.59;;;9.36;100.00
17785;BME280;9016;53.582;10.062;2023-02-12T00:45:56;103491.84;;;9.34;100.00
17785;BME280;9016;53.582;10.062;2023-02-12T00:48:24;103494.50;;;9.34;100.00
17785;BME280;9016;53.582;10.062;2023-02-12T00:50:52;103495.44;;;9.30;100.00
17785;BME280;9016;53.582;10.062;2023-02-12T00:53:20;103489.22;;;9.32;100.00
17785;BME280;9016;53.582;10.062;2023-02-12T00:55:48;103480.34;;;9.30;100.00
17785;BME280;9016;53.582;10.062;2023-02-12T00:58:18;103494.50;;;9.37;100.00
17785;BME280;9016;53.582;10.062;2023-02-12T01:00:46;103493.53;;;9.42;100.00
17785;BME280;9016;53.582;10.062;2023-02-12T01:03:14;103491.72;;;9.43;100.00
17785;BME280;9016;53.582;10.062;2023-02-12T01:05:42;103497.06;;;9.43;100.00
17785;BME280;9016;53.582;10.062;2023-02-12T01:08:11;103493.75;;;9.23;100.00
17785;BME280;9016;53.582;10.062;2023-02-12T01:10:41;103493.72;;;9.26;100.00
17785;BME280;9016;53.582;10.062;2023-02-12T01:13:13;103488.31;;;9.32;100.00
17785;BME280;9016;53.582;10.062;2023-02-12T01:15:45;103493.66;;;9.33;100.00
17785;BME280;9016;53.582;10.062;2023-02-12T01:18:14;103500.81;;;9.25;100.00
17785;BME280;9016;53.582;10.062;2023-02-12T01:20:42;103506.94;;;9.32;100.00
17785;BME280;9016;53.582;10.062;2023-02-12T01:23:10;103510.56;;;9.25;100.00
17785;BME280;9016;53.582;10.062;2023-02-12T01:25:38;103503.53;;;9.22;100.00
17785;BME280;9016;53.582;10.062;2023-02-12T01:28:08;103506.19;;;9.21;100.00
17785;BME280;9016;53.582;10.062;2023-02-12T01:30:37;103499.97;;;9.22;100.00
17785;BME280;9016;53.582;10.062;2023-02-12T01:33:07;103496.50;;;9.17;100.00
17785;BME280;9016;53.582;10.062;2023-02-12T01:35:36;103501.69;;;9.27;100.00
17785;BME280;9016;53.582;10.062;2023-02-12T01:38:04;103509.84;;;9.11;100.00
17785;BME280;9016;53.582;10.062;2023-02-12T01:40:32;103515.13;;;9.14;100.00
17785;BME280;9016;53.582;10.062;2023-02-12T01:43:02;103516.03;;;9.13;100.00
17785;BME280;9016;53.582;10.062;2023-02-12T01:45:49;103521.38;;;9.08;100.00
17785;BME280;9016;53.582;10.062;2023-02-12T01:48:22;103518.84;;;8.97;100.00
17785;BME280;9016;53.582;10.062;2023-02-12T01:50:53;103518.88;;;8.93;100.00
17785;BME280;9016;53.582;10.062;2023-02-12T01:53:24;103517.22;;;8.83;100.00
17785;BME280;9016;53.582;10.062;2023-02-12T01:55:57;103517.06;;;8.96;100.00
17785;BME280;9016;53.582;10.062;2023-02-12T01:58:29;103522.44;;;8.92;100.00
17785;BME280;9016;53.582;10.062;2023-02-12T02:01:01;103518.88;;;8.96;100.00
17785;BME280;9016;53.582;10.062;2023-02-12T02:03:32;103523.25;;;8.98;100.00
17785;BME280;9016;53.582;10.062;2023-02-12T02:06:05;103520.75;;;8.80;100.00
17785;BME280;9016;53.582;10.062;2023-02-12T02:08:35;103516.34;;;8.79;100.00
17785;BME280;9016;53.582;10.062;2023-02-12T02:11:03;103523.34;;;8.92;100.00
17785;BME280;9016;53.582;10.062;2023-02-12T02:13:53;103511.75;;;8.96;100.00
17785;BME280;9016;53.582;10.062;2023-02-12T02:16:41;103516.28;;;8.87;100.00
17785;BME280;9016;53.582;10.062;2023-02-12T02:19:23;103506.47;;;8.93;100.00
17785;BME280;9016;53.582;10.062;2023-02-12T02:22:13;103514.41;;;8.98;100.00
17785;BME280;9016;53.582;10.062;2023-02-12T02:24:54;103511.69;;;9.06;100.00
17785;BME280;9016;53.582;10.062;2023-02-12T02:27:36;103509.84;;;9.11;100.00
17785;BME280;9016;53.582;10.062;2023-02-12T02:30:33;103514.34;;;9.02;99.16
17785;BME280;9016;53.582;10.062;2023-02-12T02:33:12;103521.38;;;9.10;99.92
17785;BME280;9016;53.582;10.062;2023-02-12T02:35:48;103520.47;;;9.12;100.00
17785;BME280;9016;53.582;10.062;2023-02-12T02:38:28;103521.38;;;9.13;99.64
17785;BME280;9016;53.582;10.062;2023-02-12T02:41:03;103525.69;;;9.21;99.68
17785;BME280;9016;53.582;10.062;2023-02-12T02:43:34;103526.66;;;9.14;98.89
17785;BME280;9016;53.582;10.062;2023-02-12T02:46:10;103532.00;;;9.10;99.63
17785;BME280;9016;53.582;10.062;2023-02-12T02:48:41;103523.16;;;9.11;99.21
17785;BME280;9016;53.582;10.062;2023-02-12T02:51:13;103527.53;;;9.13;98.96
17785;BME280;9016;53.582;10.062;2023-02-12T02:53:46;103528.53;;;9.05;97.72
17785;BME280;9016;53.582;10.062;2023-02-12T02:56:18;103524.97;;;9.04;98.40
17785;BME280;9016;53.582;10.062;2023-02-12T02:58:52;103524.91;;;9.12;98.79
17785;BME280;9016;53.582;10.062;2023-02-12T03:01:26;103530.22;;;9.12;99.20
17785;BME280;9016;53.582;10.062;2023-02-12T03:03:59;103527.56;;;9.15;98.41
17785;BME280;9016;53.582;10.062;2023-02-12T03:06:33;103525.66;;;9.23;98.02
17785;BME280;9016;53.582;10.062;2023-02-12T03:09:14;103528.31;;;9.24;97.92
17785;BME280;9016;53.582;10.062;2023-02-12T03:11:43;103532.78;;;9.24;97.73
17785;BME280;9016;53.582;10.062;2023-02-12T03:14:15;103528.28;;;9.29;97.82
17785;BME280;9016;53.582;10.062;2023-02-12T03:16:52;103539.03;;;9.20;96.61
17785;BME280;9016;53.582;10.062;2023-02-12T03:19:23;103533.69;;;9.21;98.35
17785;BME280;9016;53.582;10.062;2023-02-12T03:21:56;103538.97;;;9.26;97.64
17785;BME280;9016;53.582;10.062;2023-02-12T03:24:29;103532.78;;;9.24;97.49
17785;BME280;9016;53.582;10.062;2023-02-12T03:27:05;103538.06;;;9.25;97.17
17785;BME280;9016;53.582;10.062;2023-02-12T03:29:34;103541.53;;;9.32;97.28
17785;BME280;9016;53.582;10.062;2023-02-12T03:32:13;103540.66;;;9.33;96.76
17785;BME280;9016;53.582;10.062;2023-02-12T03:34:48;103539.88;;;9.22;96.58
17785;BME280;9016;53.582;10.062;2023-02-12T03:37:20;103542.50;;;9.28;97.38
17785;BME280;9016;53.582;10.062;2023-02-12T03:39:56;103543.28;;;9.36;97.85
17785;BME280;9016;53.582;10.062;2023-02-12T03:42:32;103545.00;;;9.40;96.97
17785;BME280;9016;53.582;10.062;2023-02-12T03:45:05;103545.03;;;9.38;97.19
17785;BME280;9016;53.582;10.062;2023-02-12T03:47:43;103552.09;;;9.39;96.80
17785;BME280;9016;53.582;10.062;2023-02-12T03:50:15;103551.25;;;9.37;96.95
17785;BME280;9016;53.582;10.062;2023-02-12T03:52:46;103557.41;;;9.41;97.54
17785;BME280;9016;53.582;10.062;2023-02-12T03:55:16;103570.72;;;9.44;97.16
17785;BME280;9016;53.582;10.062;2023-02-12T03:57:48;103572.50;;;9.42;97.22
17785;BME280;9016;53.582;10.062;2023-02-12T04:02:49;103563.50;;;9.52;97.45
17785;BME280;9016;53.582;10.062;2023-02-12T04:05:19;103571.44;;;9.56;97.09
17785;BME280;9016;53.582;10.062;2023-02-12T04:07:48;103575.06;;;9.51;95.95
17785;BME280;9016;53.582;10.062;2023-02-12T04:10:17;103570.63;;;9.51;97.14
17785;BME280;9016;53.582;10.062;2023-02-12T04:12:51;103574.16;;;9.52;96.13
17785;BME280;9016;53.582;10.062;2023-02-12T04:15:36;103578.63;;;9.50;96.73
17785;BME280;9016;53.582;10.062;2023-02-12T04:18:14;103570.66;;;9.50;96.86
17785;BME280;9016;53.582;10.062;2023-02-12T04:20:53;103572.44;;;9.48;96.92
17785;BME280;9016;53.582;10.062;2023-02-12T04:23:39;103567.06;;;9.51;97.45
17785;BME280;9016;53.582;10.062;2023-02-12T04:26:20;103573.31;;;9.48;97.51
17785;BME280;9016;53.582;10.062;2023-02-12T04:29:03;103579.56;;;9.43;98.07
17785;BME280;9016;53.582;10.062;2023-02-12T04:31:38;103577.78;;;9.45;98.69
17785;BME280;9016;53.582;10.062;2023-02-12T04:34:14;103584.84;;;9.49;98.28
17785;BME280;9016;53.582;10.062;2023-02-12T04:36:48;103579.47;;;9.55;98.54
17785;BME280;9016;53.582;10.062;2023-02-12T04:39:21;103585.69;;;9.52;98.56
17785;BME280;9016;53.582;10.062;2023-02-12T04:41:50;103589.16;;;9.57;98.61
17785;BME280;9016;53.582;10.062;2023-02-12T04:44:22;103590.97;;;9.57;98.96
17785;BME280;9016;53.582;10.062;2023-02-12T04:46:51;103590.06;;;9.58;98.32
17785;BME280;9016;53.582;10.062;2023-02-12T04:49:21;103590.03;;;9.59;99.06
17785;BME280;9016;53.582;10.062;2023-02-12T04:51:50;103589.16;;;9.60;99.15
17785;BME280;9016;53.582;10.062;2023-02-12T04:54:21;103590.94;;;9.58;99.09
17785;BME280;9016;53.582;10.062;2023-02-12T04:56:50;103593.63;;;9.58;99.58
17785;BME280;9016;53.582;10.062;2023-02-12T04:59:18;103593.53;;;9.66;99.74
17785;BME280;9016;53.582;10.062;2023-02-12T05:01:46;103590.00;;;9.64;99.90
17785;BME280;9016;53.582;10.062;2023-02-12T05:04:15;103590.81;;;9.72;99.95
17785;BME280;9016;53.582;10.062;2023-02-12T05:06:45;103588.09;;;9.76;99.41
17785;BME280;9016;53.582;10.062;2023-02-12T05:09:15;103589.84;;;9.79;99.18
17785;BME280;9016;53.582;10.062;2023-02-12T05:11:44;103588.94;;;9.78;99.09
17785;BME280;9016;53.582;10.062;2023-02-12T05:14:12;103589.78;;;9.82;98.61
17785;BME280;9016;53.582;10.062;2023-02-12T05:16:40;103588.00;;;9.82;99.67
17785;BME280;9016;53.582;10.062;2023-02-12T05:19:08;103583.56;;;9.81;99.49
17785;BME280;9016;53.582;10.062;2023-02-12T05:21:37;103592.50;;;9.76;99.27
17785;BME280;9016;53.582;10.062;2023-02-12T05:24:07;103597.84;;;9.76;99.47
17785;BME280;9016;53.582;10.062;2023-02-12T05:26:35;103593.44;;;9.73;99.66
17785;BME280;9016;53.582;10.062;2023-02-12T05:29:03;103592.53;;;9.77;100.00
17785;BME280;9016;53.582;10.062;2023-02-12T05:31:32;103594.31;;;9.75;99.47
17785;BME280;9016;53.582;10.062;2023-02-12T05:34:00;103595.19;;;9.74;99.81
17785;BME280;9016;53.582;10.062;2023-02-12T05:36:28;103588.09;;;9.75;100.00
17785;BME280;9016;53.582;10.062;2023-02-12T05:38:57;103588.97;;;9.74;99.68
17785;BME280;9016;53.582;10.062;2023-02-12T05:41:27;103593.41;;;9.76;100.00
17785;BME280;9016;53.582;10.062;2023-02-12T05:44:00;103604.09;;;9.75;100.00
17785;BME280;9016;53.582;10.062;2023-02-12T05:46:28;103607.56;;;9.80;100.00
17785;BME280;9016;53.582;10.062;2023-02-12T05:48:57;103613.72;;;9.85;100.00
17785;BME280;9016;53.582;10.062;2023-02-12T05:51:25;103611.03;;;9.85;99.63
17785;BME280;9016;53.582;10.062;2023-02-12T05:53:56;103612.78;;;9.89;100.00
17785;BME280;9016;53.582;10.062;2023-02-12T05:56:28;103615.44;;;9.92;100.00
17785;BME280;9016;53.582;10.062;2023-02-12T05:58:58;103608.31;;;9.94;99.95
17785;BME280;9016;53.582;10.062;2023-02-12T06:01:30;103606.63;;;9.85;98.26
17785;BME280;9016;53.582;10.062;2023-02-12T06:03:59;103611.03;;;9.85;99.45
17785;BME280;9016;53.582;10.062;2023-02-12T06:06:28;103622.56;;;9.87;99.57
17785;BME280;9016;53.582;10.062;2023-02-12T06:08:56;103615.47;;;9.87;100.00
17785;BME280;9016;53.582;10.062;2023-02-12T06:11:25;103616.34;;;9.88;100.00
17785;BME280;9016;53.582;10.062;2023-02-12T06:13:55;103617.25;;;9.88;99.41
17785;BME280;9016;53.582;10.062;2023-02-12T06:16:24;103620.78;;;9.89;100.00
17785;BME280;9016;53.582;10.062;2023-02-12T06:18:54;103616.44;;;9.80;99.89
17785;BME280;9016;53.582;10.062;2023-02-12T06:21:24;103618.13;;;9.87;100.00
17785;BME280;9016;53.582;10.062;2023-02-12T06:23:53;103611.16;;;9.79;100.00
17785;BME280;9016;53.582;10.062;2023-02-12T06:26:21;103617.34;;;9.81;100.00
17785;BME280;9016;53.582;10.062;2023-02-12T06:28:50;103619.91;;;9.87;100.00
17785;BME280;9016;53.582;10.062;2023-02-12T06:31:22;103617.31;;;9.79;100.00
17785;BME280;9016;53.582;10.062;2023-02-12T06:33:53;103615.63;;;9.74;100.00
17785;BME280;9016;53.582;10.062;2023-02-12T06:36:22;103612.03;;;9.78;100.00
17785;BME280;9016;53.582;10.062;2023-02-12T06:38:50;103619.19;;;9.73;100.00
17785;BME280;9016;53.582;10.062;2023-02-12T06:41:19;103628.94;;;9.72;100.00
17785;BME280;9016;53.582;10.062;2023-02-12T06:43:48;103633.28;;;9.84;100.00
17785;BME280;9016;53.582;10.062;2023-02-12T06:46:16;103632.34;;;9.85;100.00
17785;BME280;9016;53.582;10.062;2023-02-12T06:48:45;103637.69;;;9.86;100.00
17785;BME280;9016;53.582;10.062;2023-02-12T06:51:15;103639.50;;;9.84;100.00
17785;BME280;9016;53.582;10.062;2023-02-12T06:53:44;103644.78;;;9.86;100.00
17785;BME280;9016;53.582;10.062;2023-02-12T06:56:12;103650.97;;;9.89;100.00
17785;BME280;9016;53.582;10.062;2023-02-12T06:58:41;103655.31;;;9.96;100.00
17785;BME280;9016;53.582;10.062;2023-02-12T07:01:11;103650.06;;;9.92;100.00
17785;BME280;9016;53.582;10.062;2023-02-12T07:03:41;103653.78;;;9.77;99.71
17785;BME280;9016;53.582;10.062;2023-02-12T07:06:10;103651.03;;;9.82;100.00
17785;BME280;9016;53.582;10.062;2023-02-12T07:08:39;103658.19;;;9.78;100.00
17785;BME280;9016;53.582;10.062;2023-02-12T07:11:07;103651.97;;;9.81;100.00
17785;BME280;9016;53.582;10.062;2023-02-12T07:13:35;103660.81;;;9.83;100.00
17785;BME280;9016;53.582;10.062;2023-02-12T07:16:04;103661.69;;;9.82;100.00
17785;BME280;9016;53.582;10.062;2023-02-12T07:18:32;103670.59;;;9.82;100.00
17785;BME280;9016;53.582;10.062;2023-02-12T07:21:05;103674.97;;;9.88;100.00
17785;BME280;9016;53.582;10.062;2023-02-12T07:23:35;103677.59;;;9.89;100.00
17785;BME280;9016;53.582;10.062;2023-02-12T07:26:05;103681.09;;;9.93;100.00
17785;BME280;9016;53.582;10.062;2023-02-12T07:28:34;103681.16;;;9.90;100.00
17785;BME280;9016;53.582;10.062;2023-02-12T07:31:05;103684.66;;;9.93;100.00
17785;BME280;9016;53.582;10.062;2023-02-12T07:33:34;103695.34;;;9.90;100.00
17785;BME280;9016;53.582;10.062;2023-02-12T07:36:04;103688.19;;;9.95;100.00
17785;BME280;9016;53.582;10.062;2023-02-12T07:38:34;103691.72;;;9.97;100.00
17785;BME280;9016;53.582;10.062;2023-02-12T07:41:06;103681.03;;;10.00;100.00
17785;BME280;9016;53.582;10.062;2023-02-12T07:43:36;103684.50;;;10.06;100.00
17785;BME280;9016;53.582;10.062;2023-02-12T07:46:06;103680.13;;;10.03;100.00
17785;BME280;9016;53.582;10.062;2023-02-12T07:48:34;103681.88;;;10.04;100.00
17785;BME280;9016;53.582;10.062;2023-02-12T07:51:04;103687.16;;;10.07;100.00
17785;BME280;9016;53.582;10.062;2023-02-12T07:53:34;103681.78;;;10.16;100.00
17785;BME280;9016;53.582;10.062;2023-02-12T07:56:07;103696.81;;;10.23;100.00
17785;BME280;9016;53.582;10.062;2023-02-12T07:58:36;103688.91;;;10.14;99.60
17785;BME280;9016;53.582;10.062;2023-02-12T08:01:12;103689.72;;;10.21;99.74
17785;BME280;9016;53.582;10.062;2023-02-12T08:03:41;103688.81;;;10.20;99.68
17785;BME280;9016;53.582;10.062;2023-02-12T08:06:11;103687.91;;;10.23;100.00
17785;BME280;9016;53.582;10.062;2023-02-12T08:08:41;103690.53;;;10.26;99.92
17785;BME280;9016;53.582;10.062;2023-02-12T08:11:10;103690.56;;;10.24;99.88
17785;BME280;9016;53.582;10.062;2023-02-12T08:13:39;103687.84;;;10.29;100.00
17785;BME280;9016;53.582;10.062;2023-02-12T08:16:09;103701.16;;;10.30;99.72
17785;BME280;9016;53.582;10.062;2023-02-12T08:18:38;103697.63;;;10.28;99.44
17785;BME280;9016;53.582;10.062;2023-02-12T08:21:08;103690.53;;;10.26;99.55
17785;BME280;9016;53.582;10.062;2023-02-12T08:23:38;103702.03;;;10.31;100.00
17785;BME280;9016;53.582;10.062;2023-02-12T08:26:09;103701.97;;;10.35;100.00
17785;BME280;9016;53.582;10.062;2023-02-12T08:28:39;103701.94;;;10.38;99.20
17785;BME280;9016;53.582;10.062;2023-02-12T08:31:11;103702.72;;;10.46;99.79
17785;BME280;9016;53.582;10.062;2023-02-12T08:33:39;103715.19;;;10.46;98.30
17785;BME280;9016;53.582;10.062;2023-02-12T08:36:09;103710.66;;;10.52;98.90
17785;BME280;9016;53.582;10.062;2023-02-12T08:38:38;103720.31;;;10.59;98.42
17785;BME280;9016;53.582;10.062;2023-02-12T08:41:09;103723.03;;;10.56;97.70
17785;BME280;9016;53.582;10.062;2023-02-12T08:43:39;103719.44;;;10.59;97.77
17785;BME280;9016;53.582;10.062;2023-02-12T08:46:08;103712.31;;;10.59;97.52
17785;BME280;9016;53.582;10.062;2023-02-12T08:48:37;103715.84;;;10.63;97.86
17785;BME280;9016;53.582;10.062;2023-02-12T08:51:07;103723.78;;;10.67;97.49
17785;BME280;9016;53.582;10.062;2023-02-12T08:53:36;103720.13;;;10.74;97.51
17785;BME280;9016;53.582;10.062;2023-02-12T08:56:05;103723.69;;;10.75;96.77
17785;BME280;9016;53.582;10.062;2023-02-12T08:58:35;103731.66;;;10.76;96.35
17785;BME280;9016;53.582;10.062;2023-02-12T09:01:07;103731.72;;;10.73;95.93
17785;BME280;9016;53.582;10.062;2023-02-12T09:03:35;103741.41;;;10.80;96.54
17785;BME280;9016;53.582;10.062;2023-02-12T09:06:05;103741.31;;;10.85;96.12
17785;BME280;9016;53.582;10.062;2023-02-12T09:08:34;103734.34;;;10.75;96.27
17785;BME280;9016;53.582;10.062;2023-02-12T09:11:04;103744.13;;;10.76;96.95
17785;BME280;9016;53.582;10.062;2023-02-12T09:13:33;103739.72;;;10.72;96.33
17785;BME280;9016;53.582;10.062;2023-02-12T09:16:03;103738.72;;;10.80;96.43
17785;BME280;9016;53.582;10.062;2023-02-12T09:18:32;103731.63;;;10.78;96.61
17785;BME280;9016;53.582;10.062;2023-02-12T09:21:00;103742.19;;;10.87;96.39
17785;BME280;9016;53.582;10.062;2023-02-12T09:23:29;103742.16;;;10.90;95.14
17785;BME280;9016;53.582;10.062;2023-02-12T09:25:57;103743.13;;;10.84;95.37
17785;BME280;9016;53.582;10.062;2023-02-12T09:28:25;103743.78;;;11.00;96.04
17785;BME280;9016;53.582;10.062;2023-02-12T09:30:53;103741.03;;;11.06;95.40
17785;BME280;9016;53.582;10.062;2023-02-12T09:33:23;103749.06;;;11.03;93.68
17785;BME280;9016;53.582;10.062;2023-02-12T09:35:51;103743.66;;;11.08;94.67
17785;BME280;9016;53.582;10.062;2023-02-12T09:38:19;103742.66;;;11.18;94.65
17785;BME280;9016;53.582;10.062;2023-02-12T09:40:57;103748.84;;;11.18;93.22
17785;BME280;9016;53.582;10.062;2023-02-12T09:43:34;103745.31;;;11.16;93.34
17785;BME280;9016;53.582;10.062;2023-02-12T09:46:20;103758.81;;;11.06;93.54
17785;BME280;9016;53.582;10.062;2023-02-12T09:49:07;103765.84;;;11.13;93.87
17785;BME280;9016;53.582;10.062;2023-02-12T09:51:37;103764.03;;;11.15;93.97
17785;BME280;9016;53.582;10.062;2023-02-12T09:54:11;103763.38;;;10.97;94.69
17785;BME280;9016;53.582;10.062;2023-02-12T09:56:43;103761.81;;;10.84;94.55
17785;BME280;9016;53.582;10.062;2023-02-12T09:59:15;103768.06;;;10.82;95.45
17785;BME280;9016;53.582;10.062;2023-02-12T10:01:47;103768.84;;;10.88;95.80
17785;BME280;9016;53.582;10.062;2023-02-12T10:04:16;103770.56;;;10.92;95.17
17785;BME280;9016;53.582;10.062;2023-02-12T10:06:54;103776.88;;;10.87;94.44
17785;BME280;9016;53.582;10.062;2023-02-12T10:09:41;103773.22;;;10.95;95.64
17785;BME280;9016;53.582;10.062;2023-02-12T10:12:17;103779.44;;;10.94;95.43
17785;BME280;9016;53.582;10.062;2023-02-12T10:15:07;103784.72;;;10.99;95.77
17785;BME280;9016;53.582;10.062;2023-02-12T10:17:41;103782.19;;;10.90;94.46
17785;BME280;9016;53.582;10.062;2023-02-12T10:20:41;103776.09;;;10.80;95.83
17785;BME280;9016;53.582;10.062;2023-02-12T10:23:29;103778.66;;;10.88;97.13
17785;BME280;9016;53.582;10.062;2023-02-12T10:26:11;103778.63;;;10.89;96.09
17785;BME280;9016;53.582;10.062;2023-02-12T10:28:41;103775.97;;;10.88;96.18
17785;BME280;9016;53.582;10.062;2023-02-12T10:31:15;103775.97;;;10.88;96.93
17785;BME280;9016;53.582;10.062;2023-02-12T10:33:46;103769.66;;;10.95;96.76
17785;BME280;9016;53.582;10.062;2023-02-12T10:36:33;103776.63;;;11.07;96.46
17785;BME280;9016;53.582;10.062;2023-02-12T10:39:10;103768.44;;;11.17;95.98
17785;BME280;9016;53.582;10.062;2023-02-12T10:41:43;103771.03;;;11.23;95.05
17785;BME280;9016;53.582;10.062;2023-02-12T10:44:13;103766.53;;;11.27;94.63
17785;BME280;9016;53.582;10.062;2023-02-12T10:46:41;103767.25;;;11.38;95.04
17785;BME280;9016;53.582;10.062;2023-02-12T10:49:11;103753.06;;;11.33;94.60
17785;BME280;9016;53.582;10.062;2023-02-12T10:52:07;103770.03;;;11.30;93.70
17785;BME280;9016;53.582;10.062;2023-02-12T10:54:39;103768.31;;;11.26;93.75
17785;BME280;9016;53.582;10.062;2023-02-12T10:57:12;103763.09;;;11.19;93.83
17785;BME280;9016;53.582;10.062;2023-02-12T10:59:43;103775.97;;;10.88;95.60
17785;BME280;9016;53.582;10.062;2023-02-12T11:02:26;103767.91;;;10.92;96.50
17785;BME280;9016;53.582;10.062;2023-02-12T11:04:55;103761.66;;;10.95;96.61
17785;BME280;9016;53.582;10.062;2023-02-12T11:07:27;103769.56;;;11.03;96.14
17785;BME280;9016;53.582;10.062;2023-02-12T11:09:56;103759.81;;;10.98;96.05
17785;BME280;9016;53.582;10.062;2023-02-12T11:12:31;103760.72;;;10.99;96.66
17785;BME280;9016;53.582;10.062;2023-02-12T11:15:03;103753.56;;;10.99;96.17
17785;BME280;9016;53.582;10.062;2023-02-12T11:17:38;103754.28;;;11.14;96.77
17785;BME280;9016;53.582;10.062;2023-02-12T11:20:20;103751.47;;;11.20;95.90
17785;BME280;9016;53.582;10.062;2023-02-12T11:22:54;103756.00;;;11.18;95.76
17785;BME280;9016;53.582;10.062;2023-02-12T11:25:24;103748.78;;;11.23;96.02
17785;BME280;9016;53.582;10.062;2023-02-12T11:28:05;103754.13;;;11.23;95.10
17785;BME280;9016;53.582;10.062;2023-02-12T11:30:58;103747.16;;;11.13;94.84
17785;BME280;9016;53.582;10.062;2023-02-12T11:33:30;103746.19;;;11.18;95.22
17785;BME280;9016;53.582;10.062;2023-02-12T11:36:00;103747.13;;;11.14;95.71
17785;BME280;9016;53.582;10.062;2023-02-12T11:38:36;103745.34;;;11.15;96.51
17785;BME280;9016;53.582;10.062;2023-02-12T11:41:20;103734.59;;;11.19;96.15
17785;BME280;9016;53.582;10.062;2023-02-12T11:43:51;103739.00;;;11.23;95.78
17785;BME280;9016;53.582;10.062;2023-02-12T11:46:22;103739.88;;;11.24;95.32
17785;BME280;9016;53.582;10.062;2023-02-12T11:48:53;103743.59;;;11.14;94.91
17785;BME280;9016;53.582;10.062;2023-02-12T11:51:25;103739.13;;;11.13;94.56
17785;BME280;9016;53.582;10.062;2023-02-12T11:53:58;103732.09;;;11.07;95.29
17785;BME280;9016;53.582;10.062;2023-02-12T11:56:41;103738.34;;;11.08;94.71
17785;BME280;9016;53.582;10.062;2023-02-12T11:59:32;103735.78;;;11.00;95.93
17785;BME280;9016;53.582;10.062;2023-02-12T12:02:08;103741.09;;;11.02;96.03
17785;BME280;9016;53.582;10.062;2023-02-12T12:04:45;103738.38;;;11.03;96.52
17785;BME280;9016;53.582;10.062;2023-02-12T12:07:19;103742.00;;;11.01;97.02
17785;BME280;9016;53.582;10.062;2023-02-12T12:09:55;103740.16;;;11.04;96.31
17785;BME280;9016;53.582;10.062;2023-02-12T12:12:32;103739.13;;;11.13;96.50
17785;BME280;9016;53.582;10.062;2023-02-12T12:15:11;103735.53;;;11.17;96.13
17785;BME280;9016;53.582;10.062;2023-02-12T12:18:08;103730.22;;;11.15;95.52
17785;BME280;9016;53.582;10.062;2023-02-12T12:21:06;103730.19;;;11.17;95.69
17785;BME280;9016;53.582;10.062;2023-02-12T12:23:38;103728.31;;;11.23;95.63
17785;BME280;9016;53.582;10.062;2023-02-12T12:26:16;103722.13;;;11.20;94.41
17785;BME280;9016;53.582;10.062;2023-02-12T12:28:54;103720.19;;;11.29;95.52
17785;BME280;9016;53.582;10.062;2023-02-12T12:31:27;103724.63;;;11.32;95.78
17785;BME280;9016;53.582;10.062;2023-02-12T12:34:07;103716.56;;;11.33;95.47
17785;BME280;9016;53.582;10.062;2023-02-12T12:36:58;103718.44;;;11.28;94.14
17785;BME280;9016;53.582;10.062;2023-02-12T12:39:35;103711.28;;;11.32;95.62
17785;BME280;9016;53.582;10.062;2023-02-12T12:42:30;103717.44;;;11.35;94.83
17785;BME280;9016;53.582;10.062;2023-02-12T12:45:16;103711.22;;;11.35;95.37
17785;BME280;9016;53.582;10.062;2023-02-12T12:47:56;103703.13;;;11.39;95.44
17785;BME280;9016;53.582;10.062;2023-02-12T12:50:38;103693.44;;;11.34;94.99
17785;BME280;9016;53.582;10.062;2023-02-12T12:53:29;103700.66;;;11.27;94.52
17785;BME280;9016;53.582;10.062;2023-02-12T12:56:09;103693.50;;;11.29;95.77
17785;BME280;9016;53.582;10.062;2023-02-12T12:58:54;103690.78;;;11.34;95.73
17785;BME280;9016;53.582;10.062;2023-02-12T13:01:47;103683.66;;;11.33;95.19
17785;BME280;9016;53.582;10.062;2023-02-12T13:04:38;103685.47;;;11.32;94.55
17785;BME280;9016;53.582;10.062;2023-02-12T13:07:22;103686.28;;;11.36;95.46
17785;BME280;9016;53.582;10.062;2023-02-12T13:10:02;103679.28;;;11.29;96.18
17785;BME280;9016;53.582;10.062;2023-02-12T13:15:32;103682.72;;;11.35;96.05
17785;BME280;9016;53.582;10.062;2023-02-12T13:18:12;103678.16;;;11.43;96.13
17785;BME280;9016;53.582;10.062;2023-02-12T13:20:47;103678.09;;;11.46;95.75
17785;BME280;9016;53.582;10.062;2023-02-12T13:23:22;103674.53;;;11.46;95.72
17785;BME280;9016;53.582;10.062;2023-02-12T13:26:01;103679.00;;;11.45;95.85
17785;BME280;9016;53.582;10.062;2023-02-12T13:28:34;103680.66;;;11.52;96.37